sensor_id;sensor_type;location;lat;lon;timestamp;P1;durP1;ratioP1;P2;durP2;ratioP2
33421;SDS011;19763;55.798;37.782;2023-08-12T00:00:19;12.27;;;10.85;;
33421;SDS011;19763;55.798;37.782;2023-08-12T00:02:45;12.07;;;10.98;;
33421;SDS011;19763;55.798;37.782;2023-08-12T00:05:12;12.98;;;11.23;;
33421;SDS011;19763;55.798;37.782;2023-08-12T00:07:38;12.98;;;11.48;;
33421;SDS011;19763;55.798;37.782;2023-08-12T00:10:09;12.10;;;10.98;;
33421;SDS011;19763;55.798;37.782;2023-08-12T00:12:36;11.73;;;10.07;;
33421;SDS011;19763;55.798;37.782;2023-08-12T00:15:03;12.27;;;11.00;;
33421;SDS011;19763;55.798;37.782;2023-08-12T00:17:32;12.45;;;10.93;;
33421;SDS011;19763;55.798;37.782;2023-08-12T00:19:58;11.95;;;10.68;;
33421;SDS011;19763;55.798;37.782;2023-08-12T00:22:24;12.02;;;10.82;;
33421;SDS011;19763;55.798;37.782;2023-08-12T00:24:50;13.13;;;11.75;;
33421;SDS011;19763;55.798;37.782;2023-08-12T00:27:17;17.17;;;9.93;;
33421;SDS011;19763;55.798;37.782;2023-08-12T00:29:43;12.43;;;11.18;;
33421;SDS011;19763;55.798;37.782;2023-08-12T00:32:09;13.07;;;10.82;;
33421;SDS011;19763;55.798;37.782;2023-08-12T00:34:35;14.45;;;11.02;;
33421;SDS011;19763;55.798;37.782;2023-08-12T00:37:01;12.05;;;10.85;;
33421;SDS011;19763;55.798;37.782;2023-08-12T00:39:27;11.90;;;10.80;;
33421;SDS011;19763;55.798;37.782;2023-08-12T00:41:52;14.00;;;11.23;;
33421;SDS011;19763;55.798;37.782;2023-08-12T00:44:18;11.45;;;10.50;;
33421;SDS011;19763;55.798;37.782;2023-08-12T00:46:44;11.98;;;10.77;;
33421;SDS011;19763;55.798;37.782;2023-08-12T00:49:10;11.93;;;10.73;;
33421;SDS011;19763;55.798;37.782;2023-08-12T00:51:38;15.85;;;11.48;;
33421;SDS011;19763;55.798;37.782;2023-08-12T00:54:06;13.90;;;11.25;;
33421;SDS011;19763;55.798;37.782;2023-08-12T00:56:35;13.02;;;11.50;;
33421;SDS011;19763;55.798;37.782;2023-08-12T00:59:01;16.02;;;12.38;;
33421;SDS011;19763;55.798;37.782;2023-08-12T01:01:30;12.65;;;11.48;;
33421;SDS011;19763;55.798;37.782;2023-08-12T01:03:56;13.02;;;11.65;;
33421;SDS011;19763;55.798;37.782;2023-08-12T01:06:22;11.95;;;10.82;;
33421;SDS011;19763;55.798;37.782;2023-08-12T01:08:48;15.60;;;11.05;;
33421;SDS011;19763;55.798;37.782;2023-08-12T01:11:16;11.95;;;10.85;;
33421;SDS011;19763;55.798;37.782;2023-08-12T01:16:46;13.30;;;11.90;;
33421;SDS011;19763;55.798;37.782;2023-08-12T01:19:29;16.50;;;12.23;;
33421;SDS011;19763;55.798;37.782;2023-08-12T01:22:02;13.27;;;11.88;;
33421;SDS011;19763;55.798;37.782;2023-08-12T01:27:06;11.82;;;10.68;;
33421;SDS011;19763;55.798;37.782;2023-08-12T01:29:33;12.07;;;10.88;;
33421;SDS011;19763;55.798;37.782;2023-08-12T01:34:58;16.95;;;12.93;;
33421;SDS011;19763;55.798;37.782;2023-08-12T01:37:32;15.80;;;12.25;;
33421;SDS011;19763;55.798;37.782;2023-08-12T01:40:01;13.32;;;12.05;;
33421;SDS011;19763;55.798;37.782;2023-08-12T01:42:33;14.43;;;12.20;;
33421;SDS011;19763;55.798;37.782;2023-08-12T01:45:00;13.55;;;12.15;;
33421;SDS011;19763;55.798;37.782;2023-08-12T01:47:31;13.17;;;11.87;;
33421;SDS011;19763;55.798;37.782;2023-08-12T01:49:57;13.98;;;11.95;;
33421;SDS011;19763;55.798;37.782;2023-08-12T01:52:23;13.20;;;11.70;;
33421;SDS011;19763;55.798;37.782;2023-08-12T01:54:49;13.98;;;12.50;;
33421;SDS011;19763;55.798;37.782;2023-08-12T01:57:15;13.45;;;12.15;;
33421;SDS011;19763;55.798;37.782;2023-08-12T01:59:41;16.17;;;12.63;;
33421;SDS011;19763;55.798;37.782;2023-08-12T02:02:08;15.52;;;12.00;;
33421;SDS011;19763;55.798;37.782;2023-08-12T02:04:34;13.75;;;12.32;;
33421;SDS011;19763;55.798;37.782;2023-08-12T02:07:01;14.25;;;12.68;;
33421;SDS011;19763;55.798;37.782;2023-08-12T02:09:27;14.50;;;12.45;;
33421;SDS011;19763;55.798;37.782;2023-08-12T02:11:53;14.73;;;12.73;;
33421;SDS011;19763;55.798;37.782;2023-08-12T02:14:19;19.35;;;12.80;;
33421;SDS011;19763;55.798;37.782;2023-08-12T02:16:44;14.25;;;12.68;;
33421;SDS011;19763;55.798;37.782;2023-08-12T02:19:10;15.07;;;13.13;;
33421;SDS011;19763;55.798;37.782;2023-08-12T02:21:36;13.85;;;12.45;;
33421;SDS011;19763;55.798;37.782;2023-08-12T02:24:01;13.35;;;12.15;;
33421;SDS011;19763;55.798;37.782;2023-08-12T02:26:27;14.80;;;12.52;;
33421;SDS011;19763;55.798;37.782;2023-08-12T02:28:53;16.20;;;12.57;;
33421;SDS011;19763;55.798;37.782;2023-08-12T02:31:18;13.80;;;12.50;;
33421;SDS011;19763;55.798;37.782;2023-08-12T02:33:44;14.18;;;12.18;;
33421;SDS011;19763;55.798;37.782;2023-08-12T02:36:10;14.77;;;13.27;;
33421;SDS011;19763;55.798;37.782;2023-08-12T02:38:35;14.57;;;13.20;;
33421;SDS011;19763;55.798;37.782;2023-08-12T02:41:01;16.38;;;13.13;;
33421;SDS011;19763;55.798;37.782;2023-08-12T02:43:27;15.52;;;12.90;;
33421;SDS011;19763;55.798;37.782;2023-08-12T02:45:52;14.38;;;12.88;;
33421;SDS011;19763;55.798;37.782;2023-08-12T02:48:18;14.02;;;12.63;;
33421;SDS011;19763;55.798;37.782;2023-08-12T02:50:44;13.75;;;12.40;;
33421;SDS011;19763;55.798;37.782;2023-08-12T02:53:10;15.63;;;11.73;;
33421;SDS011;19763;55.798;37.782;2023-08-12T02:55:35;13.57;;;11.77;;
33421;SDS011;19763;55.798;37.782;2023-08-12T02:58:03;12.45;;;11.18;;
33421;SDS011;19763;55.798;37.782;2023-08-12T03:00:29;13.63;;;12.23;;
33421;SDS011;19763;55.798;37.782;2023-08-12T03:02:55;13.60;;;12.20;;
33421;SDS011;19763;55.798;37.782;2023-08-12T03:05:21;12.18;;;10.95;;
33421;SDS011;19763;55.798;37.782;2023-08-12T03:07:48;14.35;;;11.15;;
33421;SDS011;19763;55.798;37.782;2023-08-12T03:10:14;14.00;;;12.25;;
33421;SDS011;19763;55.798;37.782;2023-08-12T03:12:40;13.73;;;11.70;;
33421;SDS011;19763;55.798;37.782;2023-08-12T03:15:06;12.52;;;11.18;;
33421;SDS011;19763;55.798;37.782;2023-08-12T03:17:33;16.38;;;12.02;;
33421;SDS011;19763;55.798;37.782;2023-08-12T03:19:58;12.55;;;11.35;;
33421;SDS011;19763;55.798;37.782;2023-08-12T03:22:25;13.90;;;10.98;;
33421;SDS011;19763;55.798;37.782;2023-08-12T03:24:52;12.90;;;11.48;;
33421;SDS011;19763;55.798;37.782;2023-08-12T03:27:18;12.60;;;11.40;;
33421;SDS011;19763;55.798;37.782;2023-08-12T03:29:44;12.50;;;11.30;;
33421;SDS011;19763;55.798;37.782;2023-08-12T03:32:09;12.48;;;11.25;;
33421;SDS011;19763;55.798;37.782;2023-08-12T03:34:35;14.00;;;12.60;;
33421;SDS011;19763;55.798;37.782;2023-08-12T03:37:00;13.50;;;12.13;;
33421;SDS011;19763;55.798;37.782;2023-08-12T03:39:26;13.32;;;11.60;;
33421;SDS011;19763;55.798;37.782;2023-08-12T03:41:52;12.38;;;11.18;;
33421;SDS011;19763;55.798;37.782;2023-08-12T03:44:18;14.18;;;11.38;;
33421;SDS011;19763;55.798;37.782;2023-08-12T03:46:44;15.32;;;12.30;;
33421;SDS011;19763;55.798;37.782;2023-08-12T03:49:10;14.68;;;11.95;;
33421;SDS011;19763;55.798;37.782;2023-08-12T03:51:35;14.32;;;11.63;;
33421;SDS011;19763;55.798;37.782;2023-08-12T03:54:01;12.20;;;10.93;;
33421;SDS011;19763;55.798;37.782;2023-08-12T03:56:27;13.95;;;12.00;;
33421;SDS011;19763;55.798;37.782;2023-08-12T03:58:52;13.02;;;11.68;;
33421;SDS011;19763;55.798;37.782;2023-08-12T04:01:18;14.68;;;11.45;;
33421;SDS011;19763;55.798;37.782;2023-08-12T04:03:44;12.65;;;11.25;;
33421;SDS011;19763;55.798;37.782;2023-08-12T04:06:09;14.20;;;11.73;;
33421;SDS011;19763;55.798;37.782;2023-08-12T04:08:35;12.70;;;11.38;;
33421;SDS011;19763;55.798;37.782;2023-08-12T04:11:01;17.23;;;12.20;;
33421;SDS011;19763;55.798;37.782;2023-08-12T04:13:26;13.13;;;11.57;;
33421;SDS011;19763;55.798;37.782;2023-08-12T04:15:52;16.23;;;12.50;;
33421;SDS011;19763;55.798;37.782;2023-08-12T04:18:21;16.02;;;13.15;;
33421;SDS011;19763;55.798;37.782;2023-08-12T04:20:50;18.10;;;12.43;;
33421;SDS011;19763;55.798;37.782;2023-08-12T04:23:17;14.00;;;12.05;;
33421;SDS011;19763;55.798;37.782;2023-08-12T04:25:44;16.15;;;12.52;;
33421;SDS011;19763;55.798;37.782;2023-08-12T04:28:11;13.27;;;11.75;;
33421;SDS011;19763;55.798;37.782;2023-08-12T04:30:43;13.07;;;11.75;;
33421;SDS011;19763;55.798;37.782;2023-08-12T04:33:10;13.65;;;12.07;;
33421;SDS011;19763;55.798;37.782;2023-08-12T04:35:36;16.58;;;11.85;;
33421;SDS011;19763;55.798;37.782;2023-08-12T04:38:02;13.50;;;12.13;;
33421;SDS011;19763;55.798;37.782;2023-08-12T04:40:28;14.00;;;12.50;;
33421;SDS011;19763;55.798;37.782;2023-08-12T04:42:54;18.30;;;11.60;;
33421;SDS011;19763;55.798;37.782;2023-08-12T04:45:19;12.70;;;10.77;;
33421;SDS011;19763;55.798;37.782;2023-08-12T04:47:45;15.25;;;12.18;;
33421;SDS011;19763;55.798;37.782;2023-08-12T04:50:11;13.73;;;11.65;;
33421;SDS011;19763;55.798;37.782;2023-08-12T04:52:36;14.43;;;12.15;;
33421;SDS011;19763;55.798;37.782;2023-08-12T04:55:02;12.63;;;11.32;;
33421;SDS011;19763;55.798;37.782;2023-08-12T04:57:29;13.00;;;11.80;;
33421;SDS011;19763;55.798;37.782;2023-08-12T04:59:55;13.00;;;11.40;;
33421;SDS011;19763;55.798;37.782;2023-08-12T05:02:21;14.55;;;11.85;;
33421;SDS011;19763;55.798;37.782;2023-08-12T05:04:50;13.50;;;12.18;;
33421;SDS011;19763;55.798;37.782;2023-08-12T05:07:17;16.23;;;12.55;;
33421;SDS011;19763;55.798;37.782;2023-08-12T05:09:43;14.25;;;12.32;;
33421;SDS011;19763;55.798;37.782;2023-08-12T05:12:09;13.93;;;11.70;;
33421;SDS011;19763;55.798;37.782;2023-08-12T05:14:36;14.27;;;11.73;;
33421;SDS011;19763;55.798;37.782;2023-08-12T05:17:02;16.20;;;12.95;;
33421;SDS011;19763;55.798;37.782;2023-08-12T05:19:28;14.15;;;12.40;;
33421;SDS011;19763;55.798;37.782;2023-08-12T05:21:54;12.68;;;11.35;;
33421;SDS011;19763;55.798;37.782;2023-08-12T05:24:19;17.77;;;11.73;;
33421;SDS011;19763;55.798;37.782;2023-08-12T05:26:46;17.10;;;12.93;;
33421;SDS011;19763;55.798;37.782;2023-08-12T05:29:12;14.00;;;12.57;;
33421;SDS011;19763;55.798;37.782;2023-08-12T05:31:38;14.13;;;12.75;;
33421;SDS011;19763;55.798;37.782;2023-08-12T05:34:03;13.35;;;11.95;;
33421;SDS011;19763;55.798;37.782;2023-08-12T05:36:29;19.52;;;11.85;;
33421;SDS011;19763;55.798;37.782;2023-08-12T05:38:55;13.30;;;11.90;;
33421;SDS011;19763;55.798;37.782;2023-08-12T05:41:21;15.02;;;13.05;;
33421;SDS011;19763;55.798;37.782;2023-08-12T05:43:47;14.32;;;12.93;;
33421;SDS011;19763;55.798;37.782;2023-08-12T05:46:13;15.73;;;12.63;;
33421;SDS011;19763;55.798;37.782;2023-08-12T05:48:39;14.02;;;12.40;;
33421;SDS011;19763;55.798;37.782;2023-08-12T05:51:04;14.00;;;12.32;;
33421;SDS011;19763;55.798;37.782;2023-08-12T05:53:30;14.05;;;12.65;;
33421;SDS011;19763;55.798;37.782;2023-08-12T05:55:57;14.98;;;11.88;;
33421;SDS011;19763;55.798;37.782;2023-08-12T05:58:23;15.50;;;13.70;;
33421;SDS011;19763;55.798;37.782;2023-08-12T06:00:48;15.27;;;12.15;;
33421;SDS011;19763;55.798;37.782;2023-08-12T06:03:14;13.82;;;12.18;;
33421;SDS011;19763;55.798;37.782;2023-08-12T06:05:40;13.02;;;11.55;;
33421;SDS011;19763;55.798;37.782;2023-08-12T06:08:06;12.98;;;11.60;;
33421;SDS011;19763;55.798;37.782;2023-08-12T06:10:33;15.82;;;12.35;;
33421;SDS011;19763;55.798;37.782;2023-08-12T06:12:58;14.82;;;12.35;;
33421;SDS011;19763;55.798;37.782;2023-08-12T06:15:24;13.55;;;11.18;;
33421;SDS011;19763;55.798;37.782;2023-08-12T06:17:50;13.13;;;11.80;;
33421;SDS011;19763;55.798;37.782;2023-08-12T06:20:16;16.40;;;12.00;;
33421;SDS011;19763;55.798;37.782;2023-08-12T06:22:41;16.60;;;12.45;;
33421;SDS011;19763;55.798;37.782;2023-08-12T06:25:07;14.85;;;13.25;;
33421;SDS011;19763;55.798;37.782;2023-08-12T06:27:33;15.10;;;11.63;;
33421;SDS011;19763;55.798;37.782;2023-08-12T06:29:59;12.38;;;11.05;;
33421;SDS011;19763;55.798;37.782;2023-08-12T06:32:25;14.50;;;11.00;;
33421;SDS011;19763;55.798;37.782;2023-08-12T06:34:50;14.90;;;11.18;;
33421;SDS011;19763;55.798;37.782;2023-08-12T06:37:16;12.70;;;11.50;;
33421;SDS011;19763;55.798;37.782;2023-08-12T06:39:42;13.27;;;12.07;;
33421;SDS011;19763;55.798;37.782;2023-08-12T06:42:07;12.57;;;10.73;;
33421;SDS011;19763;55.798;37.782;2023-08-12T06:44:33;12.25;;;10.45;;
33421;SDS011;19763;55.798;37.782;2023-08-12T06:46:59;11.95;;;10.32;;
33421;SDS011;19763;55.798;37.782;2023-08-12T06:49:24;11.70;;;10.55;;
33421;SDS011;19763;55.798;37.782;2023-08-12T06:51:50;12.60;;;10.77;;
33421;SDS011;19763;55.798;37.782;2023-08-12T06:54:16;12.48;;;11.18;;
33421;SDS011;19763;55.798;37.782;2023-08-12T06:56:41;16.08;;;11.57;;
33421;SDS011;19763;55.798;37.782;2023-08-12T06:59:07;12.63;;;10.80;;
33421;SDS011;19763;55.798;37.782;2023-08-12T07:01:33;11.13;;;10.02;;
33421;SDS011;19763;55.798;37.782;2023-08-12T07:03:58;13.10;;;10.52;;
33421;SDS011;19763;55.798;37.782;2023-08-12T07:06:24;14.82;;;10.93;;
33421;SDS011;19763;55.798;37.782;2023-08-12T07:08:50;11.95;;;10.30;;
33421;SDS011;19763;55.798;37.782;2023-08-12T07:11:15;11.65;;;10.45;;
33421;SDS011;19763;55.798;37.782;2023-08-12T07:13:41;12.13;;;10.40;;
33421;SDS011;19763;55.798;37.782;2023-08-12T07:16:08;13.98;;;10.50;;
33421;SDS011;19763;55.798;37.782;2023-08-12T07:18:33;11.95;;;10.68;;
33421;SDS011;19763;55.798;37.782;2023-08-12T07:20:59;16.70;;;10.15;;
33421;SDS011;19763;55.798;37.782;2023-08-12T07:23:25;12.63;;;9.80;;
33421;SDS011;19763;55.798;37.782;2023-08-12T07:25:51;13.18;;;9.60;;
33421;SDS011;19763;55.798;37.782;2023-08-12T07:28:16;12.45;;;9.55;;
33421;SDS011;19763;55.798;37.782;2023-08-12T07:30:42;13.38;;;9.90;;
33421;SDS011;19763;55.798;37.782;2023-08-12T07:33:08;11.07;;;9.88;;
33421;SDS011;19763;55.798;37.782;2023-08-12T07:35:33;11.10;;;10.00;;
33421;SDS011;19763;55.798;37.782;2023-08-12T07:37:59;13.20;;;11.32;;
33421;SDS011;19763;55.798;37.782;2023-08-12T07:40:25;11.77;;;10.55;;
33421;SDS011;19763;55.798;37.782;2023-08-12T07:42:51;15.23;;;10.52;;
33421;SDS011;19763;55.798;37.782;2023-08-12T07:45:17;15.93;;;9.95;;
33421;SDS011;19763;55.798;37.782;2023-08-12T07:47:42;15.38;;;10.73;;
33421;SDS011;19763;55.798;37.782;2023-08-12T07:50:08;15.50;;;11.02;;
33421;SDS011;19763;55.798;37.782;2023-08-12T07:52:36;13.05;;;10.68;;
33421;SDS011;19763;55.798;37.782;2023-08-12T07:55:02;11.98;;;10.45;;
33421;SDS011;19763;55.798;37.782;2023-08-12T07:57:28;13.95;;;10.55;;
33421;SDS011;19763;55.798;37.782;2023-08-12T07:59:54;14.85;;;12.23;;
33421;SDS011;19763;55.798;37.782;2023-08-12T08:02:20;15.13;;;11.18;;
33421;SDS011;19763;55.798;37.782;2023-08-12T08:04:45;13.35;;;11.27;;
33421;SDS011;19763;55.798;37.782;2023-08-12T08:07:14;11.80;;;10.60;;
33421;SDS011;19763;55.798;37.782;2023-08-12T08:09:41;14.05;;;11.18;;
33421;SDS011;19763;55.798;37.782;2023-08-12T08:12:08;13.20;;;11.73;;
33421;SDS011;19763;55.798;37.782;2023-08-12T08:14:34;14.73;;;10.88;;
33421;SDS011;19763;55.798;37.782;2023-08-12T08:17:00;13.25;;;11.73;;
33421;SDS011;19763;55.798;37.782;2023-08-12T08:19:26;15.23;;;11.35;;
33421;SDS011;19763;55.798;37.782;2023-08-12T08:21:52;14.75;;;11.30;;
33421;SDS011;19763;55.798;37.782;2023-08-12T08:24:17;13.75;;;11.30;;
33421;SDS011;19763;55.798;37.782;2023-08-12T08:26:43;18.48;;;12.00;;
33421;SDS011;19763;55.798;37.782;2023-08-12T08:29:11;17.13;;;12.35;;
33421;SDS011;19763;55.798;37.782;2023-08-12T08:31:36;17.13;;;12.13;;
33421;SDS011;19763;55.798;37.782;2023-08-12T08:34:02;14.43;;;12.10;;
33421;SDS011;19763;55.798;37.782;2023-08-12T08:36:28;15.18;;;12.50;;
33421;SDS011;19763;55.798;37.782;2023-08-12T08:38:53;13.48;;;11.70;;
33421;SDS011;19763;55.798;37.782;2023-08-12T08:41:19;14.68;;;11.80;;
33421;SDS011;19763;55.798;37.782;2023-08-12T08:43:47;13.38;;;11.98;;
33421;SDS011;19763;55.798;37.782;2023-08-12T08:46:16;16.40;;;12.70;;
33421;SDS011;19763;55.798;37.782;2023-08-12T08:48:42;17.38;;;12.00;;
33421;SDS011;19763;55.798;37.782;2023-08-12T08:51:11;13.45;;;12.05;;
33421;SDS011;19763;55.798;37.782;2023-08-12T08:53:37;15.73;;;12.07;;
33421;SDS011;19763;55.798;37.782;2023-08-12T08:56:07;13.40;;;12.02;;
33421;SDS011;19763;55.798;37.782;2023-08-12T08:58:37;13.18;;;11.90;;
33421;SDS011;19763;55.798;37.782;2023-08-12T09:01:03;14.73;;;12.95;;
33421;SDS011;19763;55.798;37.782;2023-08-12T09:03:32;15.32;;;12.48;;
33421;SDS011;19763;55.798;37.782;2023-08-12T09:05:58;16.83;;;12.85;;
33421;SDS011;19763;55.798;37.782;2023-08-12T09:08:25;14.70;;;12.68;;
33421;SDS011;19763;55.798;37.782;2023-08-12T09:10:53;13.50;;;12.10;;
33421;SDS011;19763;55.798;37.782;2023-08-12T09:13:20;13.80;;;12.35;;
33421;SDS011;19763;55.798;37.782;2023-08-12T09:15:45;13.10;;;11.40;;
33421;SDS011;19763;55.798;37.782;2023-08-12T09:18:11;17.05;;;11.55;;
33421;SDS011;19763;55.798;37.782;2023-08-12T09:20:37;13.05;;;11.82;;
33421;SDS011;19763;55.798;37.782;2023-08-12T09:23:03;16.90;;;12.55;;
33421;SDS011;19763;55.798;37.782;2023-08-12T09:25:29;13.85;;;11.88;;
33421;SDS011;19763;55.798;37.782;2023-08-12T09:27:55;13.50;;;12.10;;
33421;SDS011;19763;55.798;37.782;2023-08-12T09:30:24;13.32;;;11.77;;
33421;SDS011;19763;55.798;37.782;2023-08-12T09:32:58;14.18;;;12.68;;
33421;SDS011;19763;55.798;37.782;2023-08-12T09:35:30;13.20;;;12.00;;
33421;SDS011;19763;55.798;37.782;2023-08-12T09:38:05;14.93;;;13.30;;
33421;SDS011;19763;55.798;37.782;2023-08-12T09:40:32;15.95;;;12.80;;
33421;SDS011;19763;55.798;37.782;2023-08-12T09:43:00;14.32;;;12.85;;
33421;SDS011;19763;55.798;37.782;2023-08-12T09:45:26;15.15;;;13.65;;
33421;SDS011;19763;55.798;37.782;2023-08-12T09:47:52;14.45;;;12.93;;
33421;SDS011;19763;55.798;37.782;2023-08-12T09:50:22;15.82;;;13.20;;
33421;SDS011;19763;55.798;37.782;2023-08-12T09:52:49;14.98;;;12.60;;
33421;SDS011;19763;55.798;37.782;2023-08-12T09:55:17;15.50;;;12.88;;
33421;SDS011;19763;55.798;37.782;2023-08-12T09:57:45;15.13;;;13.52;;
33421;SDS011;19763;55.798;37.782;2023-08-12T10:00:15;15.15;;;13.05;;
33421;SDS011;19763;55.798;37.782;2023-08-12T10:02:43;15.18;;;12.50;;
33421;SDS011;19763;55.798;37.782;2023-08-12T10:05:27;13.90;;;12.52;;
33421;SDS011;19763;55.798;37.782;2023-08-12T10:07:55;14.93;;;13.32;;
33421;SDS011;19763;55.798;37.782;2023-08-12T10:10:21;18.17;;;13.95;;
33421;SDS011;19763;55.798;37.782;2023-08-12T10:12:50;29.83;;;21.55;;
33421;SDS011;19763;55.798;37.782;2023-08-12T10:15:17;18.30;;;13.52;;
33421;SDS011;19763;55.798;37.782;2023-08-12T10:17:43;17.38;;;14.95;;
33421;SDS011;19763;55.798;37.782;2023-08-12T10:20:13;18.63;;;14.43;;
33421;SDS011;19763;55.798;37.782;2023-08-12T10:22:45;15.98;;;14.15;;
33421;SDS011;19763;55.798;37.782;2023-08-12T10:25:13;23.30;;;19.20;;
33421;SDS011;19763;55.798;37.782;2023-08-12T10:27:39;19.05;;;14.95;;
33421;SDS011;19763;55.798;37.782;2023-08-12T10:30:05;16.77;;;15.07;;
33421;SDS011;19763;55.798;37.782;2023-08-12T10:32:33;16.35;;;14.60;;
33421;SDS011;19763;55.798;37.782;2023-08-12T10:35:00;16.40;;;14.43;;
33421;SDS011;19763;55.798;37.782;2023-08-12T10:37:26;17.80;;;15.27;;
33421;SDS011;19763;55.798;37.782;2023-08-12T10:39:53;16.40;;;14.73;;
33421;SDS011;19763;55.798;37.782;2023-08-12T10:45:15;17.48;;;15.68;;
33421;SDS011;19763;55.798;37.782;2023-08-12T10:47:42;19.13;;;16.45;;
33421;SDS011;19763;55.798;37.782;2023-08-12T10:52:43;19.02;;;14.80;;
33421;SDS011;19763;55.798;37.782;2023-08-12T10:57:50;22.48;;;17.77;;
33421;SDS011;19763;55.798;37.782;2023-08-12T11:00:23;16.75;;;14.82;;
33421;SDS011;19763;55.798;37.782;2023-08-12T11:02:49;18.13;;;16.10;;
33421;SDS011;19763;55.798;37.782;2023-08-12T11:05:19;19.52;;;16.08;;
33421;SDS011;19763;55.798;37.782;2023-08-12T11:07:58;16.65;;;15.07;;
33421;SDS011;19763;55.798;37.782;2023-08-12T11:10:28;19.67;;;15.90;;
33421;SDS011;19763;55.798;37.782;2023-08-12T11:12:56;16.80;;;15.00;;
33421;SDS011;19763;55.798;37.782;2023-08-12T11:18:15;17.42;;;15.68;;
33421;SDS011;19763;55.798;37.782;2023-08-12T11:20:45;16.10;;;14.27;;
33421;SDS011;19763;55.798;37.782;2023-08-12T11:23:12;17.42;;;14.57;;
33421;SDS011;19763;55.798;37.782;2023-08-12T11:25:39;16.38;;;14.82;;
33421;SDS011;19763;55.798;37.782;2023-08-12T11:28:08;19.33;;;14.50;;
33421;SDS011;19763;55.798;37.782;2023-08-12T11:30:33;17.52;;;15.65;;
33421;SDS011;19763;55.798;37.782;2023-08-12T11:33:00;17.27;;;15.48;;
33421;SDS011;19763;55.798;37.782;2023-08-12T11:35:26;30.63;;;25.60;;
33421;SDS011;19763;55.798;37.782;2023-08-12T11:37:53;17.98;;;15.98;;
33421;SDS011;19763;55.798;37.782;2023-08-12T11:40:24;23.73;;;17.05;;
33421;SDS011;19763;55.798;37.782;2023-08-12T11:42:51;19.05;;;17.10;;
33421;SDS011;19763;55.798;37.782;2023-08-12T11:45:18;17.48;;;15.80;;
33421;SDS011;19763;55.798;37.782;2023-08-12T11:47:46;18.05;;;15.63;;
33421;SDS011;19763;55.798;37.782;2023-08-12T11:50:19;16.75;;;15.02;;
33421;SDS011;19763;55.798;37.782;2023-08-12T11:52:46;18.50;;;15.20;;
33421;SDS011;19763;55.798;37.782;2023-08-12T11:55:13;19.77;;;15.05;;
33421;SDS011;19763;55.798;37.782;2023-08-12T11:57:40;15.63;;;14.05;;
33421;SDS011;19763;55.798;37.782;2023-08-12T12:00:08;16.83;;;13.73;;
33421;SDS011;19763;55.798;37.782;2023-08-12T12:02:48;14.57;;;13.00;;
33421;SDS011;19763;55.798;37.782;2023-08-12T12:05:15;16.15;;;14.50;;
33421;SDS011;19763;55.798;37.782;2023-08-12T12:07:42;17.02;;;15.23;;
33421;SDS011;19763;55.798;37.782;2023-08-12T12:10:12;19.58;;;16.30;;
33421;SDS011;19763;55.798;37.782;2023-08-12T12:12:40;16.77;;;15.00;;
33421;SDS011;19763;55.798;37.782;2023-08-12T12:15:06;17.20;;;15.30;;
33421;SDS011;19763;55.798;37.782;2023-08-12T12:17:32;24.10;;;17.52;;
33421;SDS011;19763;55.798;37.782;2023-08-12T12:20:06;21.63;;;16.17;;
33421;SDS011;19763;55.798;37.782;2023-08-12T12:22:36;22.88;;;19.17;;
33421;SDS011;19763;55.798;37.782;2023-08-12T12:25:06;22.20;;;18.75;;
33421;SDS011;19763;55.798;37.782;2023-08-12T12:27:33;18.40;;;16.13;;
33421;SDS011;19763;55.798;37.782;2023-08-12T12:30:00;19.88;;;17.65;;
33421;SDS011;19763;55.798;37.782;2023-08-12T12:32:29;19.85;;;17.85;;
33421;SDS011;19763;55.798;37.782;2023-08-12T12:34:55;22.52;;;18.23;;
33421;SDS011;19763;55.798;37.782;2023-08-12T12:37:20;21.70;;;16.83;;
33421;SDS011;19763;55.798;37.782;2023-08-12T12:39:46;19.65;;;16.13;;
33421;SDS011;19763;55.798;37.782;2023-08-12T12:42:12;19.63;;;14.68;;
33421;SDS011;19763;55.798;37.782;2023-08-12T12:44:37;19.13;;;15.55;;
33421;SDS011;19763;55.798;37.782;2023-08-12T12:47:03;18.52;;;14.38;;
33421;SDS011;19763;55.798;37.782;2023-08-12T12:49:29;15.75;;;14.15;;
33421;SDS011;19763;55.798;37.782;2023-08-12T12:51:55;19.52;;;15.75;;
33421;SDS011;19763;55.798;37.782;2023-08-12T12:54:21;19.15;;;15.65;;
33421;SDS011;19763;55.798;37.782;2023-08-12T12:56:46;20.17;;;15.68;;
33421;SDS011;19763;55.798;37.782;2023-08-12T12:59:12;22.10;;;16.75;;
33421;SDS011;19763;55.798;37.782;2023-08-12T13:01:40;24.35;;;18.58;;
33421;SDS011;19763;55.798;37.782;2023-08-12T13:04:06;21.63;;;16.60;;
33421;SDS011;19763;55.798;37.782;2023-08-12T13:06:33;20.25;;;18.20;;
33421;SDS011;19763;55.798;37.782;2023-08-12T13:09:01;21.63;;;18.92;;
33421;SDS011;19763;55.798;37.782;2023-08-12T13:11:28;17.15;;;15.20;;
33421;SDS011;19763;55.798;37.782;2023-08-12T13:13:53;18.17;;;15.82;;
33421;SDS011;19763;55.798;37.782;2023-08-12T13:16:20;17.65;;;15.82;;
33421;SDS011;19763;55.798;37.782;2023-08-12T13:18:45;17.15;;;14.05;;
33421;SDS011;19763;55.798;37.782;2023-08-12T13:21:11;19.13;;;15.57;;
33421;SDS011;19763;55.798;37.782;2023-08-12T13:23:37;18.17;;;15.80;;
33421;SDS011;19763;55.798;37.782;2023-08-12T13:26:03;20.75;;;17.20;;
33421;SDS011;19763;55.798;37.782;2023-08-12T13:28:28;18.15;;;16.33;;
33421;SDS011;19763;55.798;37.782;2023-08-12T13:30:55;17.02;;;14.60;;
33421;SDS011;19763;55.798;37.782;2023-08-12T13:33:20;18.08;;;15.35;;
33421;SDS011;19763;55.798;37.782;2023-08-12T13:35:46;20.08;;;16.20;;
33421;SDS011;19763;55.798;37.782;2023-08-12T13:38:12;17.02;;;14.63;;
33421;SDS011;19763;55.798;37.782;2023-08-12T13:40:37;17.17;;;15.38;;
33421;SDS011;19763;55.798;37.782;2023-08-12T13:43:03;19.48;;;17.10;;
33421;SDS011;19763;55.798;37.782;2023-08-12T13:45:29;19.75;;;17.65;;
33421;SDS011;19763;55.798;37.782;2023-08-12T13:47:54;24.35;;;16.98;;
33421;SDS011;19763;55.798;37.782;2023-08-12T13:50:20;20.55;;;15.20;;
33421;SDS011;19763;55.798;37.782;2023-08-12T13:52:46;18.02;;;16.13;;
33421;SDS011;19763;55.798;37.782;2023-08-12T13:55:12;16.85;;;14.93;;
33421;SDS011;19763;55.798;37.782;2023-08-12T13:57:38;32.67;;;25.80;;
33421;SDS011;19763;55.798;37.782;2023-08-12T14:00:03;16.90;;;15.10;;
33421;SDS011;19763;55.798;37.782;2023-08-12T14:02:35;18.80;;;16.10;;
33421;SDS011;19763;55.798;37.782;2023-08-12T14:05:02;20.10;;;16.25;;
33421;SDS011;19763;55.798;37.782;2023-08-12T14:07:29;20.00;;;17.35;;
33421;SDS011;19763;55.798;37.782;2023-08-12T14:09:55;19.38;;;15.48;;
33421;SDS011;19763;55.798;37.782;2023-08-12T14:12:21;17.00;;;14.50;;
33421;SDS011;19763;55.798;37.782;2023-08-12T14:14:47;18.75;;;15.07;;
33421;SDS011;19763;55.798;37.782;2023-08-12T14:17:13;19.73;;;15.95;;
33421;SDS011;19763;55.798;37.782;2023-08-12T14:19:42;16.98;;;15.18;;
33421;SDS011;19763;55.798;37.782;2023-08-12T14:22:09;16.60;;;14.18;;
33421;SDS011;19763;55.798;37.782;2023-08-12T14:24:34;18.23;;;16.00;;